sensor_id;sensor_type;location;lat;lon;timestamp;P1;durP1;ratioP1;P2;durP2;ratioP2
21721;SDS011;11023;48.274;7.794;2023-02-07T00:00:09;10.57;;;7.05;;
21721;SDS011;11023;48.274;7.794;2023-02-07T00:02:37;10.35;;;6.28;;
21721;SDS011;11023;48.274;7.794;2023-02-07T00:05:06;11.30;;;6.78;;
21721;SDS011;11023;48.274;7.794;2023-02-07T00:07:32;9.20;;;6.20;;
21721;SDS011;11023;48.274;7.794;2023-02-07T00:09:57;7.95;;;5.70;;
21721;SDS011;11023;48.274;7.794;2023-02-07T00:12:23;7.57;;;5.90;;
21721;SDS011;11023;48.274;7.794;2023-02-07T00:14:49;9.75;;;6.20;;
21721;SDS011;11023;48.274;7.794;2023-02-07T00:17:15;8.57;;;6.30;;
21721;SDS011;11023;48.274;7.794;2023-02-07T00:19:40;8.88;;;5.90;;
21721;SDS011;11023;48.274;7.794;2023-02-07T00:22:06;8.38;;;5.63;;
21721;SDS011;11023;48.274;7.794;2023-02-07T00:24:32;8.55;;;5.65;;
21721;SDS011;11023;48.274;7.794;2023-02-07T00:26:58;6.78;;;5.03;;
21721;SDS011;11023;48.274;7.794;2023-02-07T00:29:23;8.10;;;5.13;;
21721;SDS011;11023;48.274;7.794;2023-02-07T00:31:49;7.00;;;4.90;;
21721;SDS011;11023;48.274;7.794;2023-02-07T00:34:15;7.18;;;5.07;;
21721;SDS011;11023;48.274;7.794;2023-02-07T00:36:41;7.13;;;4.70;;
21721;SDS011;11023;48.274;7.794;2023-02-07T00:39:09;9.73;;;5.25;;
21721;SDS011;11023;48.274;7.794;2023-02-07T00:41:37;7.68;;;5.38;;
21721;SDS011;11023;48.274;7.794;2023-02-07T00:44:03;7.63;;;5.05;;
21721;SDS011;11023;48.274;7.794;2023-02-07T00:46:30;6.85;;;5.30;;
21721;SDS011;11023;48.274;7.794;2023-02-07T00:48:56;7.10;;;5.15;;
21721;SDS011;11023;48.274;7.794;2023-02-07T00:51:22;7.30;;;5.53;;
21721;SDS011;11023;48.274;7.794;2023-02-07T00:53:49;8.95;;;5.55;;
21721;SDS011;11023;48.274;7.794;2023-02-07T00:56:18;8.25;;;5.18;;
21721;SDS011;11023;48.274;7.794;2023-02-07T00:58:45;6.32;;;4.63;;
21721;SDS011;11023;48.274;7.794;2023-02-07T01:01:11;6.45;;;4.38;;
21721;SDS011;11023;48.274;7.794;2023-02-07T01:03:39;4.80;;;4.22;;
21721;SDS011;11023;48.274;7.794;2023-02-07T01:06:06;6.05;;;4.40;;
21721;SDS011;11023;48.274;7.794;2023-02-07T01:08:33;5.88;;;4.22;;
21721;SDS011;11023;48.274;7.794;2023-02-07T01:11:04;5.13;;;3.95;;
21721;SDS011;11023;48.274;7.794;2023-02-07T01:13:32;8.43;;;4.20;;
21721;SDS011;11023;48.274;7.794;2023-02-07T01:15:57;5.40;;;4.10;;
21721;SDS011;11023;48.274;7.794;2023-02-07T01:18:23;4.93;;;3.90;;
21721;SDS011;11023;48.274;7.794;2023-02-07T01:20:49;5.35;;;4.20;;
21721;SDS011;11023;48.274;7.794;2023-02-07T01:23:15;5.10;;;3.95;;
21721;SDS011;11023;48.274;7.794;2023-02-07T01:25:41;5.45;;;4.38;;
21721;SDS011;11023;48.274;7.794;2023-02-07T01:28:10;4.40;;;3.88;;
21721;SDS011;11023;48.274;7.794;2023-02-07T01:30:38;6.80;;;4.60;;
21721;SDS011;11023;48.274;7.794;2023-02-07T01:33:05;5.38;;;4.05;;
21721;SDS011;11023;48.274;7.794;2023-02-07T01:35:30;7.38;;;4.32;;
21721;SDS011;11023;48.274;7.794;2023-02-07T01:37:56;6.10;;;4.65;;
21721;SDS011;11023;48.274;7.794;2023-02-07T01:40:23;6.63;;;4.78;;
21721;SDS011;11023;48.274;7.794;2023-02-07T01:42:51;7.07;;;5.05;;
21721;SDS011;11023;48.274;7.794;2023-02-07T01:47:54;6.57;;;4.50;;
21721;SDS011;11023;48.274;7.794;2023-02-07T01:50:23;6.55;;;4.32;;
21721;SDS011;11023;48.274;7.794;2023-02-07T01:52:50;6.82;;;4.30;;
21721;SDS011;11023;48.274;7.794;2023-02-07T01:55:26;7.50;;;4.40;;
21721;SDS011;11023;48.274;7.794;2023-02-07T01:57:54;6.45;;;4.35;;
21721;SDS011;11023;48.274;7.794;2023-02-07T02:00:20;5.55;;;3.97;;
21721;SDS011;11023;48.274;7.794;2023-02-07T02:02:47;6.95;;;4.10;;
21721;SDS011;11023;48.274;7.794;2023-02-07T02:05:13;5.03;;;4.00;;
21721;SDS011;11023;48.274;7.794;2023-02-07T02:07:40;4.30;;;3.30;;
21721;SDS011;11023;48.274;7.794;2023-02-07T02:10:13;4.78;;;3.78;;
21721;SDS011;11023;48.274;7.794;2023-02-07T02:12:52;4.45;;;3.42;;
21721;SDS011;11023;48.274;7.794;2023-02-07T02:21:32;4.88;;;3.90;;
21721;SDS011;11023;48.274;7.794;2023-02-07T02:30:16;4.57;;;3.83;;
21721;SDS011;11023;48.274;7.794;2023-02-07T02:35:56;5.40;;;3.90;;
21721;SDS011;11023;48.274;7.794;2023-02-07T02:38:52;5.88;;;4.20;;
21721;SDS011;11023;48.274;7.794;2023-02-07T02:41:28;6.07;;;4.05;;
21721;SDS011;11023;48.274;7.794;2023-02-07T02:44:21;7.18;;;4.57;;
21721;SDS011;11023;48.274;7.794;2023-02-07T02:46:53;5.75;;;4.50;;
21721;SDS011;11023;48.274;7.794;2023-02-07T02:49:19;7.25;;;4.63;;
21721;SDS011;11023;48.274;7.794;2023-02-07T02:51:50;7.80;;;4.13;;
21721;SDS011;11023;48.274;7.794;2023-02-07T02:54:33;6.40;;;4.57;;
21721;SDS011;11023;48.274;7.794;2023-02-07T03:00:06;6.72;;;4.50;;
21721;SDS011;11023;48.274;7.794;2023-02-07T03:05:48;7.30;;;4.35;;
21721;SDS011;11023;48.274;7.794;2023-02-07T03:08:53;5.63;;;4.13;;
21721;SDS011;11023;48.274;7.794;2023-02-07T03:11:22;6.43;;;4.90;;
21721;SDS011;11023;48.274;7.794;2023-02-07T03:13:59;8.68;;;5.15;;
21721;SDS011;11023;48.274;7.794;2023-02-07T03:19:26;7.18;;;5.30;;
21721;SDS011;11023;48.274;7.794;2023-02-07T03:22:05;8.50;;;5.53;;
21721;SDS011;11023;48.274;7.794;2023-02-07T03:24:38;9.65;;;5.45;;
21721;SDS011;11023;48.274;7.794;2023-02-07T03:27:08;8.27;;;6.53;;
21721;SDS011;11023;48.274;7.794;2023-02-07T03:29:40;8.38;;;6.15;;
21721;SDS011;11023;48.274;7.794;2023-02-07T03:32:13;11.73;;;6.47;;
21721;SDS011;11023;48.274;7.794;2023-02-07T03:34:41;8.27;;;5.90;;
21721;SDS011;11023;48.274;7.794;2023-02-07T03:37:15;9.80;;;6.43;;
21721;SDS011;11023;48.274;7.794;2023-02-07T03:39:52;8.82;;;6.00;;
21721;SDS011;11023;48.274;7.794;2023-02-07T03:42:23;10.43;;;6.72;;
21721;SDS011;11023;48.274;7.794;2023-02-07T03:44:52;10.45;;;7.13;;
21721;SDS011;11023;48.274;7.794;2023-02-07T03:47:20;10.18;;;6.53;;
21721;SDS011;11023;48.274;7.794;2023-02-07T03:49:45;10.43;;;7.15;;
21721;SDS011;11023;48.274;7.794;2023-02-07T03:52:14;14.07;;;7.70;;
21721;SDS011;11023;48.274;7.794;2023-02-07T03:54:39;13.55;;;7.07;;
21721;SDS011;11023;48.274;7.794;2023-02-07T03:57:05;12.20;;;7.47;;
21721;SDS011;11023;48.274;7.794;2023-02-07T03:59:31;10.93;;;7.40;;
21721;SDS011;11023;48.274;7.794;2023-02-07T04:01:57;13.23;;;7.85;;
21721;SDS011;11023;48.274;7.794;2023-02-07T04:04:23;12.18;;;7.57;;
21721;SDS011;11023;48.274;7.794;2023-02-07T04:06:48;12.23;;;7.93;;
21721;SDS011;11023;48.274;7.794;2023-02-07T04:09:14;10.95;;;7.07;;
21721;SDS011;11023;48.274;7.794;2023-02-07T04:11:40;13.02;;;7.57;;
21721;SDS011;11023;48.274;7.794;2023-02-07T04:14:06;11.50;;;7.43;;
21721;SDS011;11023;48.274;7.794;2023-02-07T04:16:31;13.07;;;7.82;;
21721;SDS011;11023;48.274;7.794;2023-02-07T04:18:57;11.30;;;6.90;;
21721;SDS011;11023;48.274;7.794;2023-02-07T04:21:23;13.13;;;7.75;;
21721;SDS011;11023;48.274;7.794;2023-02-07T04:23:49;13.45;;;7.63;;
21721;SDS011;11023;48.274;7.794;2023-02-07T04:26:15;11.73;;;8.10;;
21721;SDS011;11023;48.274;7.794;2023-02-07T04:28:41;12.55;;;7.65;;
21721;SDS011;11023;48.274;7.794;2023-02-07T04:31:06;12.35;;;7.60;;
21721;SDS011;11023;48.274;7.794;2023-02-07T04:33:32;10.80;;;7.45;;
21721;SDS011;11023;48.274;7.794;2023-02-07T04:35:59;12.13;;;7.95;;
21721;SDS011;11023;48.274;7.794;2023-02-07T04:38:26;12.23;;;7.70;;
21721;SDS011;11023;48.274;7.794;2023-02-07T04:40:56;11.73;;;7.30;;
21721;SDS011;11023;48.274;7.794;2023-02-07T04:43:46;13.40;;;7.70;;
21721;SDS011;11023;48.274;7.794;2023-02-07T04:46:12;10.30;;;7.28;;
21721;SDS011;11023;48.274;7.794;2023-02-07T04:48:38;11.93;;;7.82;;
21721;SDS011;11023;48.274;7.794;2023-02-07T04:51:04;11.77;;;7.93;;
21721;SDS011;11023;48.274;7.794;2023-02-07T04:53:31;10.98;;;7.68;;
21721;SDS011;11023;48.274;7.794;2023-02-07T04:55:57;12.10;;;7.57;;
21721;SDS011;11023;48.274;7.794;2023-02-07T04:58:23;14.20;;;8.82;;
21721;SDS011;11023;48.274;7.794;2023-02-07T05:00:49;12.15;;;8.18;;
21721;SDS011;11023;48.274;7.794;2023-02-07T05:03:16;13.93;;;8.25;;
21721;SDS011;11023;48.274;7.794;2023-02-07T05:05:42;10.48;;;7.35;;
21721;SDS011;11023;48.274;7.794;2023-02-07T05:08:09;11.18;;;7.78;;
21721;SDS011;11023;48.274;7.794;2023-02-07T05:10:36;12.02;;;7.80;;
21721;SDS011;11023;48.274;7.794;2023-02-07T05:13:02;14.55;;;8.65;;
21721;SDS011;11023;48.274;7.794;2023-02-07T05:15:28;14.13;;;8.18;;
21721;SDS011;11023;48.274;7.794;2023-02-07T05:17:55;12.95;;;8.50;;
21721;SDS011;11023;48.274;7.794;2023-02-07T05:20:21;12.82;;;8.18;;
21721;SDS011;11023;48.274;7.794;2023-02-07T05:22:47;14.55;;;8.48;;
21721;SDS011;11023;48.274;7.794;2023-02-07T05:25:15;13.85;;;8.38;;
21721;SDS011;11023;48.274;7.794;2023-02-07T05:27:41;13.68;;;8.90;;
21721;SDS011;11023;48.274;7.794;2023-02-07T05:30:08;13.23;;;8.98;;
21721;SDS011;11023;48.274;7.794;2023-02-07T05:32:34;12.15;;;8.60;;
21721;SDS011;11023;48.274;7.794;2023-02-07T05:35:20;14.30;;;8.48;;
21721;SDS011;11023;48.274;7.794;2023-02-07T05:37:48;14.13;;;8.32;;
21721;SDS011;11023;48.274;7.794;2023-02-07T05:40:13;14.40;;;8.75;;
21721;SDS011;11023;48.274;7.794;2023-02-07T05:42:39;13.10;;;8.63;;
21721;SDS011;11023;48.274;7.794;2023-02-07T05:45:06;13.50;;;8.75;;
21721;SDS011;11023;48.274;7.794;2023-02-07T05:47:32;13.02;;;8.93;;
21721;SDS011;11023;48.274;7.794;2023-02-07T05:49:58;12.52;;;9.35;;
21721;SDS011;11023;48.274;7.794;2023-02-07T05:52:24;15.45;;;9.40;;
21721;SDS011;11023;48.274;7.794;2023-02-07T05:54:50;12.32;;;8.80;;
21721;SDS011;11023;48.274;7.794;2023-02-07T05:57:16;13.10;;;8.60;;
21721;SDS011;11023;48.274;7.794;2023-02-07T05:59:41;13.60;;;8.73;;
21721;SDS011;11023;48.274;7.794;2023-02-07T06:02:07;16.75;;;9.35;;
21721;SDS011;11023;48.274;7.794;2023-02-07T06:04:33;14.30;;;9.30;;
21721;SDS011;11023;48.274;7.794;2023-02-07T06:06:59;14.25;;;9.40;;
21721;SDS011;11023;48.274;7.794;2023-02-07T06:09:24;15.63;;;9.45;;
21721;SDS011;11023;48.274;7.794;2023-02-07T06:11:50;15.10;;;9.98;;
21721;SDS011;11023;48.274;7.794;2023-02-07T06:14:16;16.88;;;9.43;;
21721;SDS011;11023;48.274;7.794;2023-02-07T06:16:42;15.80;;;9.50;;
21721;SDS011;11023;48.274;7.794;2023-02-07T06:19:09;14.27;;;9.98;;
21721;SDS011;11023;48.274;7.794;2023-02-07T06:21:37;15.38;;;9.35;;
21721;SDS011;11023;48.274;7.794;2023-02-07T06:24:04;19.17;;;10.60;;
21721;SDS011;11023;48.274;7.794;2023-02-07T06:26:30;14.23;;;10.25;;
21721;SDS011;11023;48.274;7.794;2023-02-07T06:28:56;16.25;;;10.02;;
21721;SDS011;11023;48.274;7.794;2023-02-07T06:31:22;14.98;;;9.50;;
21721;SDS011;11023;48.274;7.794;2023-02-07T06:33:49;19.35;;;10.75;;
21721;SDS011;11023;48.274;7.794;2023-02-07T06:36:17;17.80;;;9.93;;
21721;SDS011;11023;48.274;7.794;2023-02-07T06:38:43;16.52;;;10.27;;
21721;SDS011;11023;48.274;7.794;2023-02-07T06:41:09;17.50;;;10.32;;
21721;SDS011;11023;48.274;7.794;2023-02-07T06:43:38;19.30;;;11.30;;
21721;SDS011;11023;48.274;7.794;2023-02-07T06:46:05;16.48;;;11.02;;
21721;SDS011;11023;48.274;7.794;2023-02-07T06:48:31;18.20;;;11.40;;
21721;SDS011;11023;48.274;7.794;2023-02-07T06:50:57;17.95;;;11.13;;
21721;SDS011;11023;48.274;7.794;2023-02-07T06:53:25;16.65;;;10.85;;
21721;SDS011;11023;48.274;7.794;2023-02-07T06:55:52;17.30;;;11.02;;
21721;SDS011;11023;48.274;7.794;2023-02-07T06:58:18;18.02;;;11.55;;
21721;SDS011;11023;48.274;7.794;2023-02-07T07:00:44;17.92;;;11.38;;
21721;SDS011;11023;48.274;7.794;2023-02-07T07:03:14;17.10;;;11.48;;
21721;SDS011;11023;48.274;7.794;2023-02-07T07:05:40;19.63;;;12.00;;
21721;SDS011;11023;48.274;7.794;2023-02-07T07:08:07;19.17;;;12.02;;
21721;SDS011;11023;48.274;7.794;2023-02-07T07:10:42;20.23;;;12.95;;
21721;SDS011;11023;48.274;7.794;2023-02-07T07:13:08;17.23;;;11.05;;
21721;SDS011;11023;48.274;7.794;2023-02-07T07:15:33;21.45;;;11.95;;
21721;SDS011;11023;48.274;7.794;2023-02-07T07:17:59;16.98;;;11.90;;
21721;SDS011;11023;48.274;7.794;2023-02-07T07:20:25;18.90;;;11.90;;
21721;SDS011;11023;48.274;7.794;2023-02-07T07:22:52;18.38;;;12.43;;
21721;SDS011;11023;48.274;7.794;2023-02-07T07:25:17;18.65;;;12.05;;
21721;SDS011;11023;48.274;7.794;2023-02-07T07:27:44;18.25;;;11.80;;
21721;SDS011;11023;48.274;7.794;2023-02-07T07:30:10;19.42;;;11.77;;
21721;SDS011;11023;48.274;7.794;2023-02-07T07:32:37;14.65;;;11.23;;
21721;SDS011;11023;48.274;7.794;2023-02-07T07:35:03;18.48;;;12.15;;
21721;SDS011;11023;48.274;7.794;2023-02-07T07:37:30;20.83;;;12.93;;
21721;SDS011;11023;48.274;7.794;2023-02-07T07:39:56;19.80;;;12.35;;
21721;SDS011;11023;48.274;7.794;2023-02-07T07:42:22;17.52;;;11.45;;
21721;SDS011;11023;48.274;7.794;2023-02-07T07:44:48;17.25;;;11.48;;
21721;SDS011;11023;48.274;7.794;2023-02-07T07:47:13;16.23;;;12.02;;
21721;SDS011;11023;48.274;7.794;2023-02-07T07:49:41;18.58;;;13.18;;
21721;SDS011;11023;48.274;7.794;2023-02-07T07:52:06;18.63;;;11.68;;
21721;SDS011;11023;48.274;7.794;2023-02-07T07:54:32;18.13;;;11.88;;
21721;SDS011;11023;48.274;7.794;2023-02-07T07:56:58;18.30;;;11.52;;
21721;SDS011;11023;48.274;7.794;2023-02-07T07:59:24;18.55;;;11.93;;
21721;SDS011;11023;48.274;7.794;2023-02-07T08:01:50;18.52;;;11.88;;
21721;SDS011;11023;48.274;7.794;2023-02-07T08:04:16;21.08;;;12.23;;
21721;SDS011;11023;48.274;7.794;2023-02-07T08:06:41;19.55;;;11.50;;
21721;SDS011;11023;48.274;7.794;2023-02-07T08:09:09;18.50;;;11.65;;
21721;SDS011;11023;48.274;7.794;2023-02-07T08:11:35;16.75;;;10.38;;
21721;SDS011;11023;48.274;7.794;2023-02-07T08:14:01;16.67;;;10.82;;
21721;SDS011;11023;48.274;7.794;2023-02-07T08:16:27;18.90;;;11.65;;
21721;SDS011;11023;48.274;7.794;2023-02-07T08:18:53;16.67;;;11.63;;
21721;SDS011;11023;48.274;7.794;2023-02-07T08:21:19;16.92;;;11.38;;
21721;SDS011;11023;48.274;7.794;2023-02-07T08:23:45;17.30;;;11.13;;
21721;SDS011;11023;48.274;7.794;2023-02-07T08:26:11;21.27;;;12.82;;
21721;SDS011;11023;48.274;7.794;2023-02-07T08:28:37;19.90;;;12.75;;
21721;SDS011;11023;48.274;7.794;2023-02-07T08:31:04;18.50;;;11.65;;
21721;SDS011;11023;48.274;7.794;2023-02-07T08:33:30;19.00;;;11.73;;
21721;SDS011;11023;48.274;7.794;2023-02-07T08:35:58;19.27;;;11.77;;
21721;SDS011;11023;48.274;7.794;2023-02-07T08:38:24;21.77;;;11.57;;
21721;SDS011;11023;48.274;7.794;2023-02-07T08:40:50;17.98;;;11.50;;
21721;SDS011;11023;48.274;7.794;2023-02-07T08:43:17;16.75;;;11.57;;
21721;SDS011;11023;48.274;7.794;2023-02-07T08:45:45;19.30;;;12.27;;
21721;SDS011;11023;48.274;7.794;2023-02-07T08:48:12;16.20;;;11.48;;
21721;SDS011;11023;48.274;7.794;2023-02-07T08:50:38;18.80;;;11.82;;
21721;SDS011;11023;48.274;7.794;2023-02-07T08:53:04;17.13;;;11.65;;
21721;SDS011;11023;48.274;7.794;2023-02-07T08:55:30;17.92;;;11.85;;
21721;SDS011;11023;48.274;7.794;2023-02-07T08:57:56;18.45;;;11.38;;
21721;SDS011;11023;48.274;7.794;2023-02-07T09:00:22;19.15;;;12.65;;
21721;SDS011;11023;48.274;7.794;2023-02-07T09:02:48;21.17;;;11.95;;
21721;SDS011;11023;48.274;7.794;2023-02-07T09:05:14;22.38;;;12.00;;
21721;SDS011;11023;48.274;7.794;2023-02-07T09:07:40;17.80;;;11.95;;
21721;SDS011;11023;48.274;7.794;2023-02-07T09:10:06;19.10;;;12.38;;
21721;SDS011;11023;48.274;7.794;2023-02-07T09:12:34;19.23;;;11.77;;
21721;SDS011;11023;48.274;7.794;2023-02-07T09:15:01;22.63;;;12.13;;
21721;SDS011;11023;48.274;7.794;2023-02-07T09:17:28;18.75;;;11.98;;
21721;SDS011;11023;48.274;7.794;2023-02-07T09:19:54;19.23;;;11.65;;
21721;SDS011;11023;48.274;7.794;2023-02-07T09:22:20;19.60;;;12.38;;
21721;SDS011;11023;48.274;7.794;2023-02-07T09:24:46;21.17;;;12.48;;
21721;SDS011;11023;48.274;7.794;2023-02-07T09:27:12;19.05;;;12.55;;
21721;SDS011;11023;48.274;7.794;2023-02-07T09:29:38;16.92;;;12.10;;
21721;SDS011;11023;48.274;7.794;2023-02-07T09:32:04;17.95;;;11.82;;
21721;SDS011;11023;48.274;7.794;2023-02-07T09:34:31;20.45;;;12.52;;
21721;SDS011;11023;48.274;7.794;2023-02-07T09:36:58;19.73;;;12.63;;
21721;SDS011;11023;48.274;7.794;2023-02-07T09:39:24;20.15;;;12.25;;
21721;SDS011;11023;48.274;7.794;2023-02-07T09:44:54;18.15;;;11.68;;
21721;SDS011;11023;48.274;7.794;2023-02-07T09:47:24;19.92;;;12.95;;
21721;SDS011;11023;48.274;7.794;2023-02-07T09:49:51;23.42;;;14.32;;
21721;SDS011;11023;48.274;7.794;2023-02-07T09:52:41;19.27;;;13.35;;
21721;SDS011;11023;48.274;7.794;2023-02-07T09:55:17;19.55;;;12.45;;
21721;SDS011;11023;48.274;7.794;2023-02-07T09:57:51;19.88;;;12.93;;
21721;SDS011;11023;48.274;7.794;2023-02-07T10:03:35;21.65;;;13.10;;
21721;SDS011;11023;48.274;7.794;2023-02-07T10:06:14;19.58;;;13.38;;
21721;SDS011;11023;48.274;7.794;2023-02-07T10:08:37;20.88;;;13.38;;
21721;SDS011;11023;48.274;7.794;2023-02-07T10:14:22;22.25;;;13.43;;
21721;SDS011;11023;48.274;7.794;2023-02-07T10:17:06;20.25;;;13.70;;
21721;SDS011;11023;48.274;7.794;2023-02-07T10:19:53;19.15;;;13.40;;
21721;SDS011;11023;48.274;7.794;2023-02-07T10:22:52;22.13;;;13.02;;
21721;SDS011;11023;48.274;7.794;2023-02-07T10:25:40;17.73;;;12.48;;
21721;SDS011;11023;48.274;7.794;2023-02-07T10:31:12;21.60;;;13.57;;
21721;SDS011;11023;48.274;7.794;2023-02-07T10:33:59;20.15;;;13.27;;
21721;SDS011;11023;48.274;7.794;2023-02-07T10:36:34;19.70;;;12.88;;
21721;SDS011;11023;48.274;7.794;2023-02-07T10:41:36;16.70;;;11.68;;
21721;SDS011;11023;48.274;7.794;2023-02-07T10:44:03;18.73;;;13.38;;
21721;SDS011;11023;48.274;7.794;2023-02-07T10:46:31;16.77;;;12.45;;
21721;SDS011;11023;48.274;7.794;2023-02-07T10:48:59;20.10;;;13.35;;
21721;SDS011;11023;48.274;7.794;2023-02-07T10:51:33;21.23;;;13.70;;
21721;SDS011;11023;48.274;7.794;2023-02-07T10:54:09;21.38;;;13.65;;
21721;SDS011;11023;48.274;7.794;2023-02-07T10:56:45;21.35;;;14.20;;
21721;SDS011;11023;48.274;7.794;2023-02-07T10:59:38;19.42;;;13.35;;
21721;SDS011;11023;48.274;7.794;2023-02-07T11:05:03;20.25;;;13.38;;
21721;SDS011;11023;48.274;7.794;2023-02-07T11:10:32;19.35;;;13.18;;
21721;SDS011;11023;48.274;7.794;2023-02-07T11:13:01;24.52;;;13.40;;
21721;SDS011;11023;48.274;7.794;2023-02-07T11:15:47;20.25;;;13.45;;
21721;SDS011;11023;48.274;7.794;2023-02-07T11:18:26;19.48;;;12.68;;
21721;SDS011;11023;48.274;7.794;2023-02-07T11:24:12;20.50;;;12.55;;
21721;SDS011;11023;48.274;7.794;2023-02-07T11:27:04;17.42;;;12.65;;
21721;SDS011;11023;48.274;7.794;2023-02-07T11:29:35;18.60;;;13.07;;
21721;SDS011;11023;48.274;7.794;2023-02-07T11:32:14;23.45;;;13.38;;
21721;SDS011;11023;48.274;7.794;2023-02-07T11:37:27;19.58;;;12.70;;
21721;SDS011;11023;48.274;7.794;2023-02-07T11:39:55;17.70;;;12.35;;
21721;SDS011;11023;48.274;7.794;2023-02-07T11:42:41;17.25;;;11.93;;
21721;SDS011;11023;48.274;7.794;2023-02-07T11:45:11;18.83;;;11.85;;
21721;SDS011;11023;48.274;7.794;2023-02-07T11:47:40;17.30;;;12.77;;
21721;SDS011;11023;48.274;7.794;2023-02-07T11:50:10;17.00;;;11.05;;
21721;SDS011;11023;48.274;7.794;2023-02-07T11:52:54;18.98;;;13.35;;
21721;SDS011;11023;48.274;7.794;2023-02-07T11:55:25;19.77;;;12.75;;
21721;SDS011;11023;48.274;7.794;2023-02-07T11:57:55;15.40;;;11.17;;
21721;SDS011;11023;48.274;7.794;2023-02-07T12:00:24;17.17;;;12.23;;
21721;SDS011;11023;48.274;7.794;2023-02-07T12:03:01;17.70;;;12.38;;
21721;SDS011;11023;48.274;7.794;2023-02-07T12:05:48;16.98;;;12.45;;
21721;SDS011;11023;48.274;7.794;2023-02-07T12:08:18;19.05;;;12.10;;
21721;SDS011;11023;48.274;7.794;2023-02-07T12:10:57;18.67;;;12.40;;
21721;SDS011;11023;48.274;7.794;2023-02-07T12:13:34;16.90;;;12.13;;
21721;SDS011;11023;48.274;7.794;2023-02-07T12:16:24;18.17;;;12.40;;
21721;SDS011;11023;48.274;7.794;2023-02-07T12:24:28;16.58;;;12.45;;
21721;SDS011;11023;48.274;7.794;2023-02-07T12:37:27;16.50;;;10.75;;
21721;SDS011;11023;48.274;7.794;2023-02-07T12:43:02;14.85;;;11.23;;
21721;SDS011;11023;48.274;7.794;2023-02-07T12:59:28;17.38;;;12.27;;
21721;SDS011;11023;48.274;7.794;2023-02-07T13:13:49;17.45;;;11.90;;
21721;SDS011;11023;48.274;7.794;2023-02-07T13:16:52;18.25;;;11.57;;
21721;SDS011;11023;48.274;7.794;2023-02-07T13:22:29;17.95;;;12.45;;
21721;SDS011;11023;48.274;7.794;2023-02-07T13:25:14;18.63;;;12.88;;
21721;SDS011;11023;48.274;7.794;2023-02-07T13:27:46;19.42;;;12.65;;
21721;SDS011;11023;48.274;7.794;2023-02-07T13:30:16;16.35;;;12.40;;
21721;SDS011;11023;48.274;7.794;2023-02-07T13:32:43;19.50;;;12.80;;
21721;SDS011;11023;48.274;7.794;2023-02-07T13:35:18;16.83;;;12.43;;
21721;SDS011;11023;48.274;7.794;2023-02-07T13:38:01;16.17;;;12.65;;
21721;SDS011;11023;48.274;7.794;2023-02-07T13:41:00;16.73;;;12.38;;
21721;SDS011;11023;48.274;7.794;2023-02-07T13:43:54;17.02;;;12.55;;
21721;SDS011;11023;48.274;7.794;2023-02-07T13:46:41;17.40;;;12.55;;
21721;SDS011;11023;48.274;7.794;2023-02-07T13:49:34;20.70;;;12.55;;
21721;SDS011;11023;48.274;7.794;2023-02-07T14:00:17;16.48;;;12.35;;
21721;SDS011;11023;48.274;7.794;2023-02-07T14:02:55;17.63;;;12.25;;
21721;SDS011;11023;48.274;7.794;2023-02-07T14:05:34;20.85;;;12.88;;
21721;SDS011;11023;48.274;7.794;2023-02-07T14:10:54;16.48;;;13.02;;
21721;SDS011;11023;48.274;7.794;2023-02-07T14:18:44;18.42;;;12.70;;
21721;SDS011;11023;48.274;7.794;2023-02-07T14:23:58;16.25;;;12.27;;
21721;SDS011;11023;48.274;7.794;2023-02-07T14:34:35;17.95;;;11.98;;
21721;SDS011;11023;48.274;7.794;2023-02-07T14:43:06;21.90;;;12.48;;
21721;SDS011;11023;48.274;7.794;2023-02-07T14:45:57;18.77;;;12.38;;
21721;SDS011;11023;48.274;7.794;2023-02-07T14:48:46;16.25;;;11.85;;
21721;SDS011;11023;48.274;7.794;2023-02-07T14:53:47;15.75;;;12.15;;
21721;SDS011;11023;48.274;7.794;2023-02-07T14:56:27;17.88;;;12.55;;
21721;SDS011;11023;48.274;7.794;2023-02-07T14:58:56;17.13;;;12.60;;
21721;SDS011;11023;48.274;7.794;2023-02-07T15:01:23;18.25;;;12.13;;
21721;SDS011;11023;48.274;7.794;2023-02-07T15:04:00;16.38;;;11.68;;
21721;SDS011;11023;48.274;7.794;2023-02-07T15:06:27;18.30;;;12.30;;
21721;SDS011;11023;48.274;7.794;2023-02-07T15:09:00;15.63;;;12.18;;
21721;SDS011;11023;48.274;7.794;2023-02-07T15:11:26;17.20;;;12.20;;
21721;SDS011;11023;48.274;7.794;2023-02-07T15:13:57;19.00;;;11.63;;
21721;SDS011;11023;48.274;7.794;2023-02-07T15:16:27;17.00;;;12.10;;
21721;SDS011;11023;48.274;7.794;2023-02-07T15:18:59;16.98;;;12.27;;
21721;SDS011;11023;48.274;7.794;2023-02-07T15:21:43;20.35;;;11.82;;
21721;SDS011;11023;48.274;7.794;2023-02-07T15:26:41;15.05;;;11.85;;
21721;SDS011;11023;48.274;7.794;2023-02-07T15:29:21;18.60;;;12.13;;
21721;SDS011;11023;48.274;7.794;2023-02-07T15:34:25;15.63;;;11.00;;
21721;SDS011;11023;48.274;7.794;2023-02-07T15:37:04;16.55;;;11.70;;
21721;SDS011;11023;48.274;7.794;2023-02-07T15:39:40;15.00;;;11.13;;
21721;SDS011;11023;48.274;7.794;2023-02-07T15:42:06;17.27;;;12.23;;
21721;SDS011;11023;48.274;7.794;2023-02-07T15:44:35;18.77;;;12.00;;
21721;SDS011;11023;48.274;7.794;2023-02-07T15:50:14;20.42;;;12.25;;
21721;SDS011;11023;48.274;7.794;2023-02-07T15:52:48;16.25;;;11.77;;
21721;SDS011;11023;48.274;7.794;2023-02-07T15:57:49;16.27;;;11.48;;
21721;SDS011;11023;48.274;7.794;2023-02-07T16:00:17;18.27;;;12.07;;
21721;SDS011;11023;48.274;7.794;2023-02-07T16:02:54;20.63;;;12.02;;
21721;SDS011;11023;48.274;7.794;2023-02-07T16:05:34;16.77;;;11.88;;
21721;SDS011;11023;48.274;7.794;2023-02-07T16:08:02;17.15;;;11.35;;
21721;SDS011;11023;48.274;7.794;2023-02-07T16:10:48;16.80;;;11.57;;
21721;SDS011;11023;48.274;7.794;2023-02-07T16:13:16;20.67;;;12.13;;
21721;SDS011;11023;48.274;7.794;2023-02-07T16:18:34;15.73;;;11.77;;
21721;SDS011;11023;48.274;7.794;2023-02-07T16:21:12;15.00;;;11.30;;
21721;SDS011;11023;48.274;7.794;2023-02-07T16:23:49;17.35;;;12.25;;
21721;SDS011;11023;48.274;7.794;2023-02-07T16:26:18;21.00;;;12.38;;
21721;SDS011;11023;48.274;7.794;2023-02-07T16:28:48;17.35;;;11.82;;
21721;SDS011;11023;48.274;7.794;2023-02-07T16:31:14;16.63;;;11.68;;
21721;SDS011;11023;48.274;7.794;2023-02-07T16:33:40;18.35;;;12.80;;
21721;SDS011;11023;48.274;7.794;2023-02-07T16:36:08;18.42;;;13.23;;
21721;SDS011;11023;48.274;7.794;2023-02-07T16:38:38;21.23;;;13.03;;
21721;SDS011;11023;48.274;7.794;2023-02-07T16:41:04;18.48;;;12.50;;
21721;SDS011;11023;48.274;7.794;2023-02-07T16:43:34;17.80;;;12.27;;
21721;SDS011;11023;48.274;7.794;2023-02-07T16:46:02;20.60;;;12.85;;
21721;SDS011;11023;48.274;7.794;2023-02-07T16:48:29;17.85;;;12.38;;
21721;SDS011;11023;48.274;7.794;2023-02-07T16:50:54;19.27;;;12.23;;
21721;SDS011;11023;48.274;7.794;2023-02-07T16:53:22;19.50;;;13.02;;
21721;SDS011;11023;48.274;7.794;2023-02-07T16:55:49;19.35;;;13.20;;
21721;SDS011;11023;48.274;7.794;2023-02-07T16:58:26;24.08;;;12.85;;
21721;SDS011;11023;48.274;7.794;2023-02-07T17:00:54;18.48;;;12.63;;
21721;SDS011;11023;48.274;7.794;2023-02-07T17:03:20;20.10;;;13.23;;
21721;SDS011;11023;48.274;7.794;2023-02-07T17:05:46;20.52;;;12.65;;
21721;SDS011;11023;48.274;7.794;2023-02-07T17:08:13;22.15;;;12.63;;
21721;SDS011;11023;48.274;7.794;2023-02-07T17:10:55;17.35;;;12.38;;
21721;SDS011;11023;48.274;7.794;2023-02-07T17:13:24;18.17;;;13.10;;
21721;SDS011;11023;48.274;7.794;2023-02-07T17:15:50;18.52;;;12.65;;